Time;durP1;ratioP1;P1;durP2;ratioP2;P2;SDS_P1;SDS_P2;PMS_P1;PMS_P2;Temp;Humidity;BMP_temperature;BMP_pressure;BME280_temperature;BME280_humidity;BME280_pressure;Samples;Min_cycle;Max_cycle;Signal;HPM_P1;HPM_P2
2022/09/30 00:01:03;;;;;;;10.20;6.80;;;8.50;99.90;;;;;;4992410;28;20207;-80
2022/09/30 00:03:31;;;;;;;9.47;7.23;;;8.60;99.90;;;;;;4992004;28;20223;-80
2022/09/30 00:05:59;;;;;;;9.30;7.23;;;8.60;99.90;;;;;;4993932;28;20219;-80
2022/09/30 00:08:28;;;;;;;8.73;7.10;;;8.70;99.90;;;;;;5016305;28;20695;-80
2022/09/30 00:11:00;;;;;;;7.47;6.70;;;8.60;99.90;;;;;;5018575;28;20208;-80
2022/09/30 00:13:28;;;;;;;7.57;6.67;;;8.50;99.90;;;;;;5003627;28;20216;-80
2022/09/30 00:15:55;;;;;;;7.47;6.30;;;8.40;99.90;;;;;;5011883;28;20203;-80
2022/09/30 00:18:22;;;;;;;8.93;6.53;;;8.50;99.90;;;;;;4993938;28;20202;-80
2022/09/30 00:20:51;;;;;;;7.47;6.63;;;8.50;99.90;;;;;;5000838;28;20203;-80
2022/09/30 00:23:19;;;;;;;7.77;7.00;;;8.40;99.90;;;;;;5000377;28;20230;-80
2022/09/30 00:25:48;;;;;;;7.50;6.63;;;8.20;99.90;;;;;;4992176;28;20222;-80
2022/09/30 00:28:16;;;;;;;8.10;6.73;;;8.20;99.90;;;;;;5000251;28;20204;-80
2022/09/30 00:30:44;;;;;;;7.63;6.83;;;8.00;99.90;;;;;;5007720;28;20207;-80
2022/09/30 00:33:11;;;;;;;8.33;7.00;;;8.10;99.90;;;;;;5013022;28;20227;-80
2022/09/30 00:35:39;;;;;;;8.17;6.70;;;8.10;99.90;;;;;;5026791;28;20207;-80
2022/09/30 00:38:06;;;;;;;8.83;6.73;;;8.10;99.90;;;;;;5015479;28;20192;-79
2022/09/30 00:40:34;;;;;;;7.50;6.13;;;8.10;99.90;;;;;;5017256;28;20561;-80
2022/09/30 00:43:02;;;;;;;7.63;6.23;;;8.10;99.90;;;;;;5000757;28;20211;-80
2022/09/30 00:45:32;;;;;;;7.30;6.10;;;7.90;99.90;;;;;;4993314;28;20196;-80
2022/09/30 00:48:07;;;;;;;9.33;6.33;;;7.90;99.90;;;;;;4998337;28;20211;-80
2022/09/30 00:50:37;;;;;;;7.63;6.70;;;7.80;99.90;;;;;;5000239;28;20222;-80
2022/09/30 00:53:11;;;;;;;7.77;6.90;;;7.90;99.90;;;;;;4995247;28;20242;-79
2022/09/30 00:55:50;;;;;;;10.33;7.03;;;8.00;99.90;;;;;;4999873;28;20208;-79
2022/09/30 00:58:24;;;;;;;8.90;6.20;;;8.00;99.90;;;;;;5002950;28;20792;-80
2022/09/30 01:00:52;;;;;;;6.10;5.50;;;7.90;99.90;;;;;;5007294;28;20203;-80
2022/09/30 01:03:21;;;;;;;7.43;5.73;;;7.90;99.90;;;;;;4994049;28;20224;-80
2022/09/30 01:05:49;;;;;;;7.63;5.87;;;8.10;99.90;;;;;;4995532;28;20210;-80
2022/09/30 01:08:18;;;;;;;6.83;6.17;;;8.30;99.90;;;;;;5001704;28;20200;-80
2022/09/30 01:10:45;;;;;;;6.47;5.77;;;8.20;99.90;;;;;;4999359;28;20240;-80
2022/09/30 01:13:14;;;;;;;6.33;5.73;;;8.20;99.90;;;;;;4999460;28;20247;-79
2022/09/30 01:15:56;;;;;;;6.37;5.77;;;8.30;99.90;;;;;;4995084;28;20204;-79
2022/09/30 01:18:34;;;;;;;7.33;5.37;;;8.20;99.90;;;;;;5009442;28;20211;-79
2022/09/30 01:21:31;;;;;;;5.50;5.00;;;8.30;99.90;;;;;;5001523;28;20206;-80
2022/09/30 01:24:26;;;;;;;6.83;5.83;;;8.50;99.90;;;;;;4960091;28;20226;-80
2022/09/30 01:27:12;;;;;;;7.43;6.20;;;8.60;99.90;;;;;;5015359;28;20195;-79
2022/09/30 01:30:06;;;;;;;9.00;6.17;;;8.70;99.90;;;;;;5014844;28;20212;-80
2022/09/30 01:32:53;;;;;;;7.37;5.30;;;8.50;99.90;;;;;;4997421;28;20215;-80
2022/09/30 01:35:29;;;;;;;6.60;5.40;;;8.20;99.90;;;;;;4998603;28;20211;-80
2022/09/30 01:38:03;;;;;;;6.60;5.57;;;8.20;99.90;;;;;;5009891;28;20208;-78
2022/09/30 01:40:43;;;;;;;5.67;5.13;;;8.00;99.90;;;;;;4991535;28;20196;-78
2022/09/30 01:43:18;;;;;;;7.53;5.70;;;8.10;99.90;;;;;;4989385;28;20234;-78
2022/09/30 01:45:57;;;;;;;6.70;5.77;;;8.30;99.90;;;;;;4986811;28;20203;-78
2022/09/30 01:48:30;;;;;;;8.00;6.30;;;8.30;99.90;;;;;;4997987;28;20200;-78
2022/09/30 01:51:01;;;;;;;8.67;6.33;;;8.40;99.90;;;;;;4990040;28;20220;-78
2022/09/30 01:53:40;;;;;;;6.73;6.00;;;8.40;99.90;;;;;;4991121;28;20226;-78
2022/09/30 01:56:17;;;;;;;5.33;4.83;;;8.40;99.90;;;;;;4996681;28;20222;-78
2022/09/30 01:58:50;;;;;;;6.97;5.60;;;8.20;99.90;;;;;;4989616;28;20221;-78
2022/09/30 02:01:24;;;;;;;5.50;5.00;;;8.20;99.90;;;;;;4993470;28;20214;-78
2022/09/30 02:03:55;;;;;;;8.87;5.87;;;8.30;99.90;;;;;;4993512;28;20726;-78
2022/09/30 02:06:27;;;;;;;6.67;5.80;;;8.40;99.90;;;;;;4995162;28;20207;-78
2022/09/30 02:09:02;;;;;;;8.33;6.20;;;8.30;99.90;;;;;;4992525;28;20222;-78
2022/09/30 02:11:33;;;;;;;7.30;5.87;;;8.20;99.90;;;;;;4983394;28;20203;-78
2022/09/30 02:14:05;;;;;;;7.17;5.73;;;8.00;99.90;;;;;;4990547;28;20220;-78
2022/09/30 02:16:39;;;;;;;5.83;5.33;;;8.00;99.90;;;;;;4992821;28;20203;-78
2022/09/30 02:19:13;;;;;;;5.90;5.07;;;8.00;99.90;;;;;;4988365;28;20234;-78
2022/09/30 02:21:43;;;;;;;10.07;5.60;;;7.90;99.90;;;;;;5007547;28;20191;-77
2022/09/30 02:24:16;;;;;;;6.80;5.40;;;7.70;99.90;;;;;;5001622;28;20203;-77
2022/09/30 02:26:46;;;;;;;5.37;4.87;;;7.80;99.90;;;;;;4993280;28;20206;-78
2022/09/30 02:29:18;;;;;;;5.50;4.37;;;7.90;99.90;;;;;;4992337;28;20207;-78
2022/09/30 02:31:49;;;;;;;5.03;4.60;;;7.90;99.90;;;;;;5008836;28;20205;-78
2022/09/30 02:34:22;;;;;;;6.37;4.50;;;7.90;99.90;;;;;;4992584;28;20207;-77
2022/09/30 02:36:54;;;;;;;5.53;4.87;;;8.00;99.90;;;;;;4992326;28;21135;-77
2022/09/30 02:39:26;;;;;;;5.40;4.90;;;7.90;99.90;;;;;;4988485;28;20199;-78
2022/09/30 02:42:01;;;;;;;7.83;4.93;;;8.00;99.90;;;;;;4994596;28;20211;-78
2022/09/30 02:44:30;;;;;;;5.90;5.30;;;7.90;99.90;;;;;;4992732;28;20195;-78
2022/09/30 02:47:13;;;;;;;5.50;4.97;;;7.90;99.90;;;;;;5009439;28;20202;-78
2022/09/30 02:49:47;;;;;;;6.33;5.40;;;7.90;99.90;;;;;;4992114;28;20683;-78
2022/09/30 02:52:23;;;;;;;6.90;5.47;;;7.90;99.90;;;;;;4992299;28;20229;-78
2022/09/30 02:55:18;;;;;;;5.83;5.20;;;7.90;99.90;;;;;;5010004;28;20214;-78
2022/09/30 02:57:56;;;;;;;6.10;5.10;;;7.90;99.90;;;;;;4990193;28;20207;-78
2022/09/30 03:00:24;;;;;;;6.07;5.43;;;7.90;99.90;;;;;;5006676;28;20195;-78
2022/09/30 03:02:57;;;;;;;5.80;5.20;;;7.90;99.90;;;;;;4990862;28;20235;-78
2022/09/30 03:05:27;;;;;;;7.30;5.37;;;8.00;99.90;;;;;;5005260;28;20199;-78
2022/09/30 03:07:55;;;;;;;5.80;5.30;;;7.90;99.90;;;;;;4993489;28;20561;-78
2022/09/30 03:10:23;;;;;;;6.37;5.00;;;7.90;99.90;;;;;;4987692;28;20695;-78
2022/09/30 03:13:09;;;;;;;6.10;5.50;;;7.80;99.90;;;;;;4992694;28;20223;-77
2022/09/30 03:15:46;;;;;;;8.07;5.27;;;7.80;99.90;;;;;;4990471;28;20203;-77
2022/09/30 03:18:35;;;;;;;6.17;5.57;;;7.80;99.90;;;;;;5011163;28;20200;-78
2022/09/30 03:21:12;;;;;;;6.00;5.03;;;7.80;99.90;;;;;;4987624;28;20192;-78
2022/09/30 03:24:01;;;;;;;7.60;5.07;;;7.90;99.90;;;;;;5008089;28;20377;-78
2022/09/30 03:26:37;;;;;;;8.87;6.10;;;7.90;99.90;;;;;;5004877;28;20188;-78
2022/09/30 03:29:13;;;;;;;6.50;5.73;;;7.90;99.90;;;;;;4992817;28;20208;-78
2022/09/30 03:31:52;;;;;;;6.73;6.03;;;7.70;99.90;;;;;;5002675;28;20226;-78
2022/09/30 03:34:26;;;;;;;6.80;6.10;;;7.70;99.90;;;;;;4985748;28;20195;-78
2022/09/30 03:37:02;;;;;;;7.07;5.97;;;7.50;99.90;;;;;;5004134;28;20210;-78
2022/09/30 03:39:39;;;;;;;5.70;5.20;;;7.50;99.90;;;;;;4987293;28;20682;-77
2022/09/30 03:42:14;;;;;;;6.50;5.43;;;7.40;99.90;;;;;;4992719;28;20227;-78
2022/09/30 03:44:46;;;;;;;6.47;5.27;;;7.40;99.90;;;;;;5001298;28;20191;-77
2022/09/30 03:47:17;;;;;;;5.90;5.30;;;7.40;99.90;;;;;;4998888;28;20671;-78
2022/09/30 03:49:50;;;;;;;5.73;5.23;;;7.60;99.90;;;;;;4987622;28;20211;-78
2022/09/30 03:52:20;;;;;;;6.93;6.20;;;7.70;99.90;;;;;;5005826;28;20688;-78
2022/09/30 03:54:50;;;;;;;6.70;5.90;;;7.80;99.90;;;;;;4986714;28;20211;-78
2022/09/30 03:57:18;;;;;;;8.17;6.13;;;7.80;99.90;;;;;;4984610;28;20591;-78
2022/09/30 03:59:45;;;;;;;6.63;6.00;;;7.90;99.90;;;;;;5010801;28;20203;-78
2022/09/30 04:02:13;;;;;;;7.27;6.07;;;7.90;99.90;;;;;;5005637;28;20227;-78
2022/09/30 04:04:40;;;;;;;7.50;6.07;;;7.70;99.90;;;;;;5003565;28;20229;-78
2022/09/30 04:07:09;;;;;;;6.60;6.00;;;7.50;99.90;;;;;;4996098;28;20568;-78
2022/09/30 04:09:38;;;;;;;7.37;5.63;;;7.50;99.90;;;;;;5010467;28;20204;-78
2022/09/30 04:12:06;;;;;;;8.77;6.20;;;7.50;99.90;;;;;;5010597;28;20223;-77
2022/09/30 04:14:34;;;;;;;7.27;6.43;;;7.40;99.90;;;;;;5009354;28;20200;-78
2022/09/30 04:17:02;;;;;;;7.00;6.30;;;7.30;99.90;;;;;;4998696;28;20211;-77
2022/09/30 04:19:29;;;;;;;8.53;6.30;;;7.30;99.90;;;;;;5007122;28;20249;-77
2022/09/30 04:21:57;;;;;;;8.80;6.33;;;7.30;99.90;;;;;;4997723;28;20207;-78
2022/09/30 04:24:25;;;;;;;7.57;6.43;;;7.20;99.90;;;;;;5018921;28;20199;-78
2022/09/30 04:26:53;;;;;;;8.33;7.03;;;7.20;99.90;;;;;;5006632;28;20207;-78
2022/09/30 04:29:21;;;;;;;8.33;6.80;;;7.30;99.90;;;;;;5023874;28;20200;-77
2022/09/30 04:31:48;;;;;;;6.80;6.13;;;7.30;99.90;;;;;;4999393;28;20227;-77
2022/09/30 04:34:15;;;;;;;8.30;6.87;;;7.50;99.90;;;;;;5002624;28;20203;-78
2022/09/30 04:36:43;;;;;;;8.07;6.90;;;7.60;99.90;;;;;;4998208;28;20203;-78
2022/09/30 04:39:10;;;;;;;7.77;6.60;;;7.80;99.90;;;;;;4996549;28;20200;-77
2022/09/30 04:41:39;;;;;;;7.87;6.10;;;7.70;99.90;;;;;;5010256;28;20191;-77
2022/09/30 04:44:08;;;;;;;7.57;6.23;;;7.50;99.90;;;;;;4999671;28;20211;-77
2022/09/30 04:46:36;;;;;;;7.10;6.40;;;7.60;99.90;;;;;;5015651;28;20196;-78
2022/09/30 04:49:04;;;;;;;8.93;6.27;;;7.50;99.90;;;;;;5008964;28;20203;-77
2022/09/30 04:51:32;;;;;;;7.93;7.13;;;7.40;99.90;;;;;;5001463;28;20224;-79
2022/09/30 04:54:00;;;;;;;7.07;6.33;;;7.20;99.90;;;;;;4994248;28;20223;-80
2022/09/30 04:56:27;;;;;;;7.67;6.87;;;7.10;99.90;;;;;;4994426;28;20208;-79
2022/09/30 04:58:55;;;;;;;7.57;6.77;;;7.10;99.90;;;;;;4999359;28;20672;-80
2022/09/30 05:01:23;;;;;;;8.53;7.30;;;7.10;99.90;;;;;;5010301;28;20192;-79
2022/09/30 05:03:51;;;;;;;9.77;7.93;;;7.10;99.90;;;;;;5011824;28;20231;-79
2022/09/30 05:06:19;;;;;;;9.90;8.43;;;7.20;99.90;;;;;;4992975;28;20215;-79
2022/09/30 05:08:47;;;;;;;12.33;9.70;;;7.50;99.90;;;;;;4994574;28;20206;-79
2022/09/30 05:11:17;;;;;;;13.40;10.53;;;7.90;99.90;;;;;;4999726;28;20230;-79
2022/09/30 05:13:45;;;;;;;10.60;9.50;;;8.10;99.90;;;;;;5000951;28;20236;-79
2022/09/30 05:16:14;;;;;;;11.23;9.57;;;8.30;99.90;;;;;;4997709;28;20215;-78
2022/09/30 05:18:44;;;;;;;11.43;10.23;;;8.40;99.90;;;;;;4995192;28;20207;-78
2022/09/30 05:21:14;;;;;;;14.23;10.80;;;8.40;99.90;;;;;;4994008;28;20223;-79
2022/09/30 05:23:41;;;;;;;13.17;10.27;;;8.40;99.90;;;;;;5015850;28;20223;-80
